Terminal Aerodrome Forecast
Issued by NWS

Home | Current Version | Previous Version | Text Only | Print | Product List | Glossary Off
Versions: 1 2 3 4 5 6 7 8 9 10 11 12 13 14 15

000
FTUS43 KIWX 161100
TAFSBN
TAF
KSBN 161120Z 1612/1712 15007KT P6SM FEW100
     FM161600 15014G23KT P6SM BKN120
     FM170100 15012KT P6SM BKN150=

USA.gov is the U.S. government's official web portal to all federal, state and local government web resources and services.